Time;durP1;ratioP1;P1;durP2;ratioP2;P2;SDS_P1;SDS_P2;PMS_P1;PMS_P2;Temp;Humidity;BMP_temperature;BMP_pressure;BME280_temperature;BME280_humidity;BME280_pressure;Samples;Min_cycle;Max_cycle;Signal;HPM_P1;HPM_P2
2023/05/09 00:02:14;;;;;;;1.20;1.10;;;8.00;92.70;7.80;101391.00;;;;4923817;28;122969;-70
2023/05/09 00:04:41;;;;;;;1.70;1.60;;;8.00;92.90;7.70;101382.00;;;;4922354;28;93151;-70
2023/05/09 00:07:06;;;;;;;4.17;1.70;;;7.90;93.20;7.70;101380.00;;;;4914625;28;92961;-72
2023/05/09 00:09:32;;;;;;;2.00;1.60;;;7.80;93.40;7.60;101382.00;;;;4925277;28;92764;-70
2023/05/09 00:11:58;;;;;;;3.03;1.93;;;7.80;93.50;7.50;101374.00;;;;4922835;28;123557;-70
2023/05/09 00:14:24;;;;;;;4.53;1.87;;;7.70;93.70;7.40;101371.00;;;;4923299;28;121024;-72
2023/05/09 00:16:50;;;;;;;1.53;1.43;;;7.60;94.10;7.40;101378.00;;;;4927265;28;92167;-71
2023/05/09 00:19:16;;;;;;;1.30;1.20;;;7.60;94.30;7.30;101380.00;;;;4924631;28;93015;-71
2023/05/09 00:21:41;;;;;;;2.23;1.63;;;7.50;94.60;7.20;101383.00;;;;4927892;28;93116;-71
2023/05/09 00:24:07;;;;;;;1.53;1.43;;;7.50;94.80;7.20;101373.00;;;;4923522;28;122445;-71
2023/05/09 00:26:33;;;;;;;1.90;1.10;;;7.40;95.00;7.10;101379.00;;;;4924513;28;109925;-71
2023/05/09 00:28:58;;;;;;;1.80;1.40;;;7.70;95.40;7.00;101376.00;;;;4924349;28;110363;-71
2023/05/09 00:31:24;;;;;;;1.30;1.20;;;7.30;95.60;7.00;101383.00;;;;4922773;28;124337;-71
2023/05/09 00:33:49;;;;;;;2.37;1.57;;;7.20;95.90;6.90;101372.00;;;;4922373;28;110578;-71
2023/05/09 00:36:15;;;;;;;3.30;1.70;;;7.10;96.20;6.80;101369.00;;;;4924377;28;109899;-71
2023/05/09 00:38:41;;;;;;;1.30;0.97;;;7.50;96.60;6.80;101370.00;;;;4926118;28;105035;-71
2023/05/09 00:41:07;;;;;;;2.33;2.13;;;6.90;96.70;6.70;101369.00;;;;4927209;28;112607;-71
2023/05/09 00:43:32;;;;;;;4.20;1.57;;;6.90;97.00;6.60;101359.00;;;;4926784;28;93017;-71
2023/05/09 00:45:58;;;;;;;1.90;1.80;;;6.80;97.40;6.60;101364.00;;;;4923180;28;111228;-71
2023/05/09 00:48:24;;;;;;;3.83;2.13;;;6.80;97.80;6.60;101359.00;;;;4923972;28;109023;-71
2023/05/09 00:50:51;;;;;;;3.30;1.90;;;6.90;98.30;6.50;101346.00;;;;4925223;28;121189;-71
2023/05/09 00:53:19;;;;;;;6.43;1.60;;;6.90;99.00;6.50;101344.00;;;;4927602;28;93914;-71
2023/05/09 00:55:45;;;;;;;2.60;2.33;;;6.70;99.30;6.50;101346.00;;;;4928988;28;93039;-71
2023/05/09 00:58:11;;;;;;;1.30;1.27;;;6.60;99.80;6.50;101359.00;;;;4925718;28;107350;-70
2023/05/09 01:00:37;;;;;;;2.30;2.20;;;6.60;99.90;6.40;101336.00;;;;4927481;28;103956;-71
2023/05/09 01:03:03;;;;;;;2.07;1.50;;;6.60;99.90;6.40;101339.00;;;;4923031;28;120206;-71
2023/05/09 01:05:55;;;;;;;3.03;2.23;;;6.90;99.90;6.30;101340.00;;;;4927780;28;92217;-71
2023/05/09 01:08:56;;;;;;;1.47;1.37;;;6.50;99.90;6.20;101340.00;;;;4923777;28;92895;-70
2023/05/09 01:11:40;;;;;;;1.63;1.50;;;6.50;99.90;6.20;101341.00;;;;4925653;28;93417;-71
2023/05/09 01:14:24;;;;;;;1.80;0.93;;;6.40;99.90;6.10;101334.00;;;;4916939;28;93912;-71
2023/05/09 01:17:09;;;;;;;2.03;1.70;;;6.40;99.90;6.10;101336.00;;;;4922323;28;92969;-71
2023/05/09 01:19:55;;;;;;;1.93;1.50;;;6.30;99.90;6.00;101335.00;;;;4927794;28;93077;-71
2023/05/09 01:22:30;;;;;;;1.27;1.13;;;6.40;99.90;6.10;101332.00;;;;4926249;28;94821;-71
2023/05/09 01:25:11;;;;;;;2.07;1.50;;;6.20;99.90;6.00;101322.00;;;;4908712;28;93122;-71
2023/05/09 01:28:13;;;;;;;1.53;1.43;;;6.20;99.90;5.90;101332.00;;;;4924506;28;92893;-71
2023/05/09 01:30:43;;;;;;;3.00;2.40;;;6.20;99.90;6.00;101325.00;;;;4927222;28;92840;-71
2023/05/09 01:33:12;;;;;;;2.83;1.97;;;6.10;99.90;5.90;101324.00;;;;4925640;28;92764;-71
2023/05/09 01:35:41;;;;;;;2.53;2.10;;;6.40;99.90;5.90;101317.00;;;;4927759;28;93012;-71
2023/05/09 01:38:13;;;;;;;1.40;1.30;;;6.10;99.90;5.90;101313.00;;;;4928188;28;110736;-71
2023/05/09 01:40:41;;;;;;;2.83;2.00;;;6.10;99.90;5.80;101302.00;;;;4928519;28;94192;-71
2023/05/09 01:43:09;;;;;;;3.60;1.60;;;6.60;99.90;5.80;101311.00;;;;4925585;28;121032;-71
2023/05/09 01:45:37;;;;;;;1.97;1.77;;;6.00;99.90;5.80;101310.00;;;;4929948;28;93770;-71
2023/05/09 01:48:05;;;;;;;1.93;1.77;;;6.10;99.90;5.70;101309.00;;;;4925567;28;93047;-72
2023/05/09 01:50:32;;;;;;;5.87;2.40;;;6.00;99.90;5.70;101315.00;;;;4915737;28;103012;-71
2023/05/09 01:53:00;;;;;;;3.30;1.87;;;5.90;99.90;5.70;101306.00;;;;4923994;28;121877;-71
2023/05/09 01:55:29;;;;;;;6.47;2.10;;;5.90;99.90;5.70;101301.00;;;;4928231;28;93020;-71
2023/05/09 01:57:57;;;;;;;2.47;2.27;;;5.80;99.90;5.60;101308.00;;;;4930617;28;92093;-71
2023/05/09 02:00:31;;;;;;;1.83;1.63;;;5.80;99.90;5.60;101301.00;;;;4925106;28;109426;-71
2023/05/09 02:02:57;;;;;;;2.17;1.70;;;5.70;99.90;5.50;101301.00;;;;4926661;28;107768;-71
2023/05/09 02:05:27;;;;;;;1.30;1.17;;;5.80;99.90;5.50;101314.00;;;;4927295;28;94046;-71
2023/05/09 02:07:57;;;;;;;2.27;2.07;;;5.70;99.90;5.50;101308.00;;;;4928194;28;93109;-71
2023/05/09 02:10:26;;;;;;;1.57;1.40;;;5.70;99.90;5.40;101309.00;;;;4923683;28;92913;-71
2023/05/09 02:12:53;;;;;;;1.93;1.40;;;5.60;99.90;5.40;101306.00;;;;4926986;28;93021;-71
2023/05/09 02:15:20;;;;;;;2.43;1.47;;;5.50;99.90;5.30;101305.00;;;;4923005;28;93988;-71
2023/05/09 02:17:45;;;;;;;2.80;2.13;;;5.60;99.90;5.30;101303.00;;;;4927324;28;92928;-71
2023/05/09 02:20:12;;;;;;;1.97;1.57;;;5.50;99.90;5.30;101305.00;;;;4928345;28;92993;-71
2023/05/09 02:22:40;;;;;;;4.37;1.80;;;6.00;99.90;5.20;101300.00;;;;4928251;28;92991;-71
2023/05/09 02:25:08;;;;;;;2.63;1.80;;;5.50;99.90;5.20;101294.00;;;;4926668;28;93092;-71
2023/05/09 02:27:34;;;;;;;2.33;1.50;;;5.40;99.90;5.20;101306.00;;;;4924404;28;92835;-71
2023/05/09 02:30:06;;;;;;;2.03;1.73;;;5.80;99.90;5.20;101303.00;;;;4927467;28;93858;-71
2023/05/09 02:32:34;;;;;;;2.03;1.67;;;5.40;99.90;5.10;101298.00;;;;4929247;28;93259;-71
2023/05/09 02:35:02;;;;;;;2.27;1.43;;;5.90;99.90;5.10;101287.00;;;;4924687;28;93170;-71
2023/05/09 02:37:29;;;;;;;3.03;1.77;;;5.30;99.90;5.00;101299.00;;;;4925252;28;92904;-71
2023/05/09 02:39:55;;;;;;;4.33;2.37;;;5.20;99.90;4.90;101285.00;;;;4927539;28;93013;-72
2023/05/09 02:42:27;;;;;;;1.43;1.33;;;5.20;99.90;4.90;101295.00;;;;4922147;28;122468;-71
2023/05/09 02:44:54;;;;;;;3.97;2.77;;;5.10;99.90;4.80;101298.00;;;;4926937;28;93138;-71
2023/05/09 02:47:20;;;;;;;3.53;1.83;;;5.10;99.90;4.80;101289.00;;;;4925672;28;92344;-71
2023/05/09 02:49:46;;;;;;;1.57;1.47;;;5.00;99.90;4.80;101291.00;;;;4926906;28;93012;-71
2023/05/09 02:52:12;;;;;;;2.33;1.70;;;5.00;99.90;4.70;101294.00;;;;4925618;28;94243;-71
2023/05/09 02:54:38;;;;;;;3.60;2.03;;;5.00;99.90;4.70;101293.00;;;;4926146;28;100475;-71
2023/05/09 02:57:04;;;;;;;1.47;1.23;;;4.90;99.90;4.70;101290.00;;;;4926203;28;92783;-72
2023/05/09 02:59:30;;;;;;;2.93;1.60;;;4.90;99.90;4.70;101290.00;;;;4924693;28;107273;-71
2023/05/09 03:01:56;;;;;;;4.13;1.67;;;4.90;99.90;4.70;101288.00;;;;4925798;28;93559;-71
2023/05/09 03:04:22;;;;;;;2.33;1.63;;;4.80;99.90;4.60;101289.00;;;;4923342;28;122644;-71
2023/05/09 03:06:48;;;;;;;2.60;1.80;;;4.90;99.90;4.60;101287.00;;;;4926500;28;100512;-71
2023/05/09 03:09:14;;;;;;;1.70;1.60;;;4.80;99.90;4.60;101284.00;;;;4923614;28;93327;-71
2023/05/09 03:11:39;;;;;;;2.50;1.83;;;4.80;99.90;4.60;101287.00;;;;4925247;28;93149;-71
2023/05/09 03:14:07;;;;;;;1.90;1.27;;;4.80;99.90;4.60;101289.00;;;;4923136;28;122302;-71
2023/05/09 03:16:33;;;;;;;6.00;2.30;;;4.80;99.90;4.60;101277.00;;;;4924984;28;92870;-71
2023/05/09 03:18:59;;;;;;;2.17;1.73;;;4.80;99.90;4.60;101283.00;;;;4926481;28;95448;-72
2023/05/09 03:21:25;;;;;;;2.50;2.07;;;5.00;99.90;4.60;101279.00;;;;4925556;28;99286;-72
2023/05/09 03:23:50;;;;;;;2.10;1.90;;;4.80;99.90;4.50;101271.00;;;;4922968;28;93532;-72
2023/05/09 03:26:16;;;;;;;2.13;1.90;;;4.70;99.90;4.50;101270.00;;;;4923050;28;109243;-72
2023/05/09 03:28:42;;;;;;;1.60;1.50;;;4.70;99.90;4.50;101277.00;;;;4929821;28;99240;-72
2023/05/09 03:31:07;;;;;;;1.67;1.57;;;5.00;99.90;4.50;101280.00;;;;4925812;28;102754;-72
2023/05/09 03:33:33;;;;;;;2.87;2.43;;;4.60;99.90;4.50;101289.00;;;;4935295;28;110990;-70
2023/05/09 03:35:59;;;;;;;2.37;1.60;;;4.70;99.90;4.50;101287.00;;;;4925125;28;109452;-71
2023/05/09 03:38:24;;;;;;;5.07;1.70;;;4.70;99.90;4.40;101283.00;;;;4908471;28;98773;-72
2023/05/09 03:40:52;;;;;;;2.10;1.70;;;4.70;99.90;4.40;101275.00;;;;4925180;28;121481;-71
2023/05/09 03:43:18;;;;;;;2.33;1.90;;;4.60;99.90;4.40;101275.00;;;;4920398;28;94456;-71
2023/05/09 03:45:43;;;;;;;2.37;1.60;;;4.60;99.90;4.40;101282.00;;;;4927138;28;109102;-71
2023/05/09 03:48:10;;;;;;;4.33;1.90;;;4.60;99.90;4.40;101274.00;;;;4925422;28;107693;-71
2023/05/09 03:50:36;;;;;;;5.50;2.17;;;5.20;99.90;4.40;101285.00;;;;4926013;28;94114;-71
2023/05/09 03:53:02;;;;;;;2.60;2.03;;;4.60;99.90;4.40;101273.00;;;;4924798;28;92950;-71
2023/05/09 03:55:27;;;;;;;2.37;2.17;;;4.60;99.90;4.40;101278.00;;;;4932460;28;97159;-71
2023/05/09 03:57:53;;;;;;;3.73;1.30;;;4.60;99.90;4.40;101287.00;;;;4923040;28;108993;-71
2023/05/09 04:00:20;;;;;;;1.67;1.57;;;4.60;99.90;4.40;101282.00;;;;4928990;28;110625;-71
2023/05/09 04:02:49;;;;;;;2.60;2.17;;;4.60;99.90;4.50;101278.00;;;;4926421;28;96023;-71
2023/05/09 04:05:15;;;;;;;2.87;2.47;;;4.70;99.90;4.50;101271.00;;;;4928953;28;92732;-71
2023/05/09 04:07:41;;;;;;;2.30;2.10;;;4.70;99.90;4.50;101279.00;;;;4928717;28;108138;-71
2023/05/09 04:10:08;;;;;;;2.17;1.63;;;4.70;99.90;4.60;101284.00;;;;4922379;28;93989;-71
2023/05/09 04:12:34;;;;;;;2.87;2.13;;;4.80;99.90;4.60;101274.00;;;;4922651;28;106060;-71
2023/05/09 04:15:00;;;;;;;2.27;1.70;;;4.80;99.90;4.70;101279.00;;;;4926302;28;110100;-70
2023/05/09 04:17:26;;;;;;;4.33;2.07;;;4.80;99.90;4.70;101272.00;;;;4922980;28;108594;-71
2023/05/09 04:19:51;;;;;;;2.70;2.43;;;4.90;99.90;4.80;101278.00;;;;4929003;28;122247;-71
2023/05/09 04:22:17;;;;;;;2.33;1.47;;;5.00;99.90;4.90;101281.00;;;;4921600;28;93427;-71
2023/05/09 04:24:43;;;;;;;1.47;1.37;;;5.50;99.90;5.00;101281.00;;;;4925494;28;110363;-71
2023/05/09 04:27:08;;;;;;;2.70;1.93;;;5.10;99.90;5.10;101276.00;;;;4923464;28;107216;-72
2023/05/09 04:29:35;;;;;;;2.20;1.43;;;5.30;99.90;5.10;101282.00;;;;4926224;28;122197;-71
2023/05/09 04:32:01;;;;;;;1.93;1.70;;;5.30;99.90;5.20;101287.00;;;;4921935;28;93934;-71
2023/05/09 04:34:28;;;;;;;1.73;1.63;;;5.40;99.90;5.30;101280.00;;;;4923464;28;92817;-71
2023/05/09 04:36:54;;;;;;;2.27;1.40;;;5.50;99.90;5.50;101271.00;;;;4926619;28;92977;-72
2023/05/09 04:39:20;;;;;;;3.63;1.63;;;5.60;99.90;5.60;101273.00;;;;4925582;28;120377;-71
2023/05/09 04:41:46;;;;;;;2.77;2.03;;;5.70;99.90;5.80;101269.00;;;;4921990;28;93330;-71
2023/05/09 04:44:12;;;;;;;1.63;1.53;;;5.90;99.90;5.90;101275.00;;;;4924535;28;93150;-72
2023/05/09 04:46:39;;;;;;;1.97;1.67;;;6.10;99.90;6.10;101279.00;;;;4925904;28;108248;-72
2023/05/09 04:49:05;;;;;;;2.17;1.57;;;6.20;99.90;6.30;101282.00;;;;4923756;28;92611;-72
2023/05/09 04:51:30;;;;;;;1.70;1.60;;;6.40;99.90;6.50;101272.00;;;;4926536;28;121057;-74
2023/05/09 04:53:56;;;;;;;2.43;1.57;;;6.50;99.90;6.60;101273.00;;;;4922496;28;109039;-70
2023/05/09 04:56:22;;;;;;;4.60;1.77;;;6.70;99.90;6.80;101271.00;;;;4926245;28;108901;-71
2023/05/09 04:58:48;;;;;;;2.53;1.93;;;7.20;99.90;7.00;101284.00;;;;4925851;28;120584;-71
2023/05/09 05:01:15;;;;;;;1.73;1.43;;;7.00;99.90;7.20;101274.00;;;;4925034;28;121972;-72
2023/05/09 05:03:41;;;;;;;1.50;1.40;;;7.20;99.90;7.40;101276.00;;;;4928045;28;92928;-72
2023/05/09 05:06:06;;;;;;;2.27;1.83;;;7.40;99.90;7.60;101280.00;;;;4925881;28;108381;-71
2023/05/09 05:08:32;;;;;;;1.57;1.43;;;7.60;99.90;7.80;101284.00;;;;4926836;28;117872;-70
2023/05/09 05:10:58;;;;;;;2.03;1.57;;;7.70;99.90;8.00;101274.00;;;;4927726;28;93122;-70
2023/05/09 05:13:24;;;;;;;1.70;1.60;;;8.00;99.90;8.10;101270.00;;;;4926311;28;109662;-71
2023/05/09 05:15:49;;;;;;;3.33;1.33;;;8.10;99.90;8.40;101272.00;;;;4928994;28;92966;-70
2023/05/09 05:18:15;;;;;;;4.53;2.10;;;8.30;99.90;8.60;101272.00;;;;4924902;28;93352;-70
2023/05/09 05:20:41;;;;;;;1.47;1.33;;;8.50;99.90;8.70;101277.00;;;;4925335;28;117713;-71
2023/05/09 05:23:07;;;;;;;2.80;2.10;;;8.70;99.90;8.90;101274.00;;;;4926794;28;92990;-70
2023/05/09 05:25:33;;;;;;;1.80;1.43;;;8.90;99.90;9.10;101261.00;;;;4927572;28;101614;-70
2023/05/09 05:27:59;;;;;;;1.73;1.63;;;9.00;99.90;9.20;101265.00;;;;4925979;28;94048;-72
2023/05/09 05:30:25;;;;;;;1.43;1.33;;;9.20;99.90;9.40;101259.00;;;;4923357;28;123476;-72
2023/05/09 05:32:51;;;;;;;6.67;1.63;;;9.30;99.90;9.60;101262.00;;;;4924914;28;112095;-72
2023/05/09 05:35:44;;;;;;;2.00;1.53;;;9.50;99.90;9.80;101252.00;;;;4927692;28;107979;-72
2023/05/09 05:38:10;;;;;;;2.80;1.90;;;9.80;99.90;10.00;101252.00;;;;4927147;28;122633;-72
2023/05/09 05:40:35;;;;;;;2.73;1.80;;;9.90;99.90;10.20;101250.00;;;;4923943;28;120531;-71
2023/05/09 05:43:01;;;;;;;1.33;1.23;;;10.20;99.90;10.40;101256.00;;;;4921006;28;110608;-72
2023/05/09 05:45:29;;;;;;;2.53;1.33;;;10.40;99.90;10.70;101256.00;;;;4923049;28;93922;-71
2023/05/09 05:47:55;;;;;;;1.47;1.37;;;10.60;99.90;10.90;101259.00;;;;4928143;28;93858;-70
2023/05/09 05:50:20;;;;;;;1.37;1.27;;;10.70;99.70;11.10;101260.00;;;;4926384;28;94479;-72
2023/05/09 05:52:46;;;;;;;1.63;1.20;;;11.00;98.00;11.20;101255.00;;;;4928256;28;109983;-72
2023/05/09 05:55:12;;;;;;;2.53;0.80;;;11.10;97.10;11.40;101253.00;;;;4926093;28;107712;-72
2023/05/09 05:57:38;;;;;;;3.17;1.63;;;11.30;95.10;11.50;101253.00;;;;4926196;28;112086;-72
2023/05/09 06:00:09;;;;;;;1.13;0.93;;;11.40;92.60;11.60;101256.00;;;;4926320;28;94183;-71
2023/05/09 06:02:35;;;;;;;1.67;1.37;;;11.50;91.20;11.60;101253.00;;;;4927171;28;92208;-73
2023/05/09 06:05:02;;;;;;;2.47;2.07;;;11.70;90.10;11.70;101247.00;;;;4912201;28;108824;-71
2023/05/09 06:07:28;;;;;;;0.90;0.70;;;11.70;88.80;11.80;101246.00;;;;4925447;28;93855;-72
2023/05/09 06:09:54;;;;;;;2.33;1.63;;;11.70;89.00;12.00;101235.00;;;;4926013;28;123715;-72
2023/05/09 06:12:20;;;;;;;1.50;1.40;;;11.90;84.60;12.10;101243.00;;;;4926918;28;93118;-70
2023/05/09 06:14:45;;;;;;;1.27;1.17;;;12.00;82.40;12.20;101237.00;;;;4930363;28;109160;-70
2023/05/09 06:17:11;;;;;;;1.47;1.03;;;12.10;82.90;12.30;101238.00;;;;4926333;28;115518;-70
2023/05/09 06:19:37;;;;;;;0.90;0.80;;;12.20;79.50;12.30;101235.00;;;;4926668;28;123149;-69
2023/05/09 06:22:02;;;;;;;1.57;1.17;;;12.70;77.80;12.30;101228.00;;;;4925394;28;93246;-69
2023/05/09 06:24:28;;;;;;;3.07;1.30;;;12.30;77.80;12.40;101229.00;;;;4926130;28;109119;-71
2023/05/09 06:26:54;;;;;;;1.83;1.23;;;12.40;75.80;12.40;101237.00;;;;4922431;28;120989;-72
2023/05/09 06:29:20;;;;;;;2.30;0.80;;;12.30;74.90;12.40;101235.00;;;;4926921;28;92938;-72
2023/05/09 06:31:45;;;;;;;2.20;1.40;;;12.40;76.10;12.70;101225.00;;;;4928642;28;93128;-71
2023/05/09 06:34:11;;;;;;;0.83;0.80;;;12.50;75.50;12.90;101220.00;;;;4923665;28;103140;-69
2023/05/09 06:36:37;;;;;;;0.93;0.90;;;12.70;75.10;13.10;101223.00;;;;4925363;28;122072;-72
2023/05/09 06:39:02;;;;;;;2.53;1.23;;;12.70;73.80;13.30;101220.00;;;;4924168;28;108477;-73
2023/05/09 06:41:28;;;;;;;1.20;0.83;;;13.20;71.60;13.40;101204.00;;;;4905174;28;92750;-70
2023/05/09 06:43:54;;;;;;;2.27;1.73;;;13.30;68.70;13.50;101210.00;;;;4923571;28;109209;-70
2023/05/09 06:46:19;;;;;;;1.40;1.20;;;13.40;67.00;13.50;101207.00;;;;4924061;28;93870;-70
2023/05/09 06:48:45;;;;;;;3.03;0.80;;;13.40;68.40;13.70;101200.00;;;;4923182;28;123077;-71
2023/05/09 06:51:11;;;;;;;1.13;1.03;;;13.50;67.20;13.80;101210.00;;;;4925145;28;111413;-71
2023/05/09 06:53:39;;;;;;;0.93;0.83;;;13.70;68.10;14.10;101202.00;;;;4925815;28;92898;-71
2023/05/09 06:56:05;;;;;;;1.53;1.40;;;13.90;65.10;14.20;101204.00;;;;4924683;28;123307;-70
2023/05/09 06:58:31;;;;;;;1.23;1.10;;;14.10;65.10;14.40;101191.00;;;;4924391;28;121972;-70
2023/05/09 07:00:56;;;;;;;1.60;1.10;;;14.20;62.70;14.50;101196.00;;;;4927524;28;110989;-70
2023/05/09 07:03:22;;;;;;;1.50;0.93;;;14.30;61.90;14.50;101201.00;;;;4923052;28;108312;-70
2023/05/09 07:05:48;;;;;;;1.07;1.00;;;14.40;61.60;14.50;101189.00;;;;4924523;28;98494;-70
2023/05/09 07:08:13;;;;;;;2.37;1.47;;;14.40;61.00;14.60;101189.00;;;;4923092;28;93028;-70
2023/05/09 07:10:39;;;;;;;1.00;1.00;;;14.50;59.30;14.50;101175.00;;;;4926511;28;109353;-70
2023/05/09 07:13:05;;;;;;;2.10;1.37;;;14.50;59.60;14.70;101171.00;;;;4924313;28;109296;-70
2023/05/09 07:15:31;;;;;;;1.52;1.08;;;14.50;59.30;14.80;101167.00;;;;4930028;28;93202;-70
2023/05/09 07:17:56;;;;;;;1.25;1.15;;;14.60;59.10;14.90;101177.00;;;;4925763;28;121604;-71
2023/05/09 07:20:22;;;;;;;1.37;1.17;;;14.70;58.80;14.90;101179.00;;;;4929763;28;110476;-69
2023/05/09 07:22:48;;;;;;;1.92;1.20;;;14.80;58.40;15.00;101167.00;;;;4928459;28;108687;-70
2023/05/09 07:25:14;;;;;;;0.85;0.80;;;14.90;58.70;15.10;101167.00;;;;4927298;28;121957;-71
2023/05/09 07:27:40;;;;;;;1.15;0.88;;;14.90;57.50;15.10;101158.00;;;;4925515;28;92847;-71
2023/05/09 07:30:08;;;;;;;3.58;1.33;;;15.00;57.70;15.20;101159.00;;;;4928799;28;92660;-71
2023/05/09 07:32:36;;;;;;;1.27;1.00;;;15.10;57.00;15.30;101154.00;;;;4926336;28;92933;-71
2023/05/09 07:35:02;;;;;;;3.50;1.08;;;15.10;56.60;15.30;101164.00;;;;4925148;28;99149;-71
2023/05/09 07:37:28;;;;;;;2.20;1.17;;;15.20;56.50;15.50;101146.00;;;;4926462;28;94451;-70
2023/05/09 07:39:54;;;;;;;1.83;1.27;;;15.30;55.90;15.60;101149.00;;;;4928418;28;110705;-71
2023/05/09 07:42:20;;;;;;;1.52;0.98;;;15.40;55.20;15.60;101141.00;;;;4923411;28;93042;-70
2023/05/09 07:44:46;;;;;;;2.10;1.27;;;15.50;54.90;15.50;101142.00;;;;4920941;28;95107;-71
2023/05/09 07:47:12;;;;;;;1.13;0.93;;;15.50;54.60;15.50;101141.00;;;;4923852;28;93785;-71
2023/05/09 07:49:39;;;;;;;0.80;0.80;;;15.40;54.70;15.50;101132.00;;;;4923569;28;110466;-70
2023/05/09 07:52:05;;;;;;;1.45;1.17;;;15.40;54.10;15.50;101128.00;;;;4925976;28;93216;-71
2023/05/09 07:54:30;;;;;;;1.25;1.10;;;15.50;55.00;15.80;101126.00;;;;4927084;28;93737;-72
2023/05/09 07:56:56;;;;;;;0.90;0.77;;;15.60;54.10;15.90;101116.00;;;;4924194;28;122437;-72
2023/05/09 07:59:22;;;;;;;1.83;1.08;;;15.70;53.10;16.00;101118.00;;;;4922593;28;92949;-71
2023/05/09 08:01:47;;;;;;;1.40;1.00;;;15.80;53.60;16.10;101103.00;;;;4911959;28;107906;-71
2023/05/09 08:04:13;;;;;;;3.25;1.00;;;15.90;53.50;16.30;101106.00;;;;4921477;28;93133;-71
2023/05/09 08:06:39;;;;;;;1.30;1.17;;;16.10;52.70;16.30;101108.00;;;;4923087;28;93367;-73
2023/05/09 08:09:05;;;;;;;2.92;1.40;;;16.20;53.20;16.60;101115.00;;;;4926045;28;93135;-72
2023/05/09 08:11:34;;;;;;;2.90;1.63;;;16.40;51.90;16.60;101110.00;;;;4925522;28;94177;-72
2023/05/09 08:14:00;;;;;;;1.15;1.02;;;16.40;51.00;16.60;101107.00;;;;4922706;28;94875;-72
2023/05/09 08:16:26;;;;;;;2.15;1.45;;;16.50;51.10;16.50;101101.00;;;;4924465;28;98970;-72
2023/05/09 08:18:53;;;;;;;2.70;1.13;;;16.50;51.20;16.60;101095.00;;;;4926234;28;93086;-72
2023/05/09 08:21:19;;;;;;;2.05;1.08;;;16.50;51.10;16.70;101096.00;;;;4921656;28;92950;-73
2023/05/09 08:23:45;;;;;;;1.45;0.88;;;16.60;50.00;16.70;101092.00;;;;4928097;28;95589;-73
2023/05/09 08:26:10;;;;;;;1.67;1.15;;;16.60;50.20;16.50;101089.00;;;;4923190;28;94123;-72
2023/05/09 08:28:36;;;;;;;1.17;0.88;;;16.50;49.90;16.50;101094.00;;;;4924521;28;109007;-72
2023/05/09 08:31:02;;;;;;;2.03;1.10;;;16.40;49.80;16.50;101085.00;;;;4927565;28;92897;-72
2023/05/09 08:33:27;;;;;;;1.23;1.13;;;16.40;49.90;16.60;101078.00;;;;4924958;28;93778;-72
2023/05/09 08:35:53;;;;;;;5.97;1.13;;;16.50;50.40;16.80;101071.00;;;;4922372;28;122828;-73
2023/05/09 08:38:19;;;;;;;0.90;0.88;;;16.60;49.80;17.00;101084.00;;;;4924291;28;93076;-71
2023/05/09 08:40:46;;;;;;;2.67;1.00;;;16.80;49.00;17.20;101079.00;;;;4923839;28;108557;-72
2023/05/09 08:43:12;;;;;;;3.03;0.93;;;16.90;49.40;17.40;101078.00;;;;4922957;28;108074;-71
2023/05/09 08:45:48;;;;;;;2.88;1.33;;;17.10;48.50;17.40;101077.00;;;;4922647;28;101080;-71
2023/05/09 08:48:18;;;;;;;3.30;1.17;;;17.10;48.20;17.30;101081.00;;;;4920404;28;93123;-72
2023/05/09 08:50:44;;;;;;;0.80;0.80;;;17.10;48.50;17.40;101075.00;;;;4938847;28;102032;-72
2023/05/09 08:53:11;;;;;;;1.55;0.90;;;17.30;49.20;17.60;101070.00;;;;4923104;28;114231;-73
2023/05/09 08:55:37;;;;;;;1.45;0.90;;;17.40;47.80;17.70;101073.00;;;;4923713;28;92972;-72
2023/05/09 08:58:03;;;;;;;1.95;1.40;;;17.50;48.10;17.90;101072.00;;;;4925654;28;96483;-73
2023/05/09 09:00:29;;;;;;;0.65;0.63;;;17.60;47.30;18.00;101067.00;;;;4924348;28;93933;-73
2023/05/09 09:02:57;;;;;;;1.50;0.93;;;17.70;47.60;18.10;101065.00;;;;4920405;28;95271;-73
2023/05/09 09:05:24;;;;;;;1.17;1.08;;;17.80;46.00;18.10;101060.00;;;;4924640;28;114757;-72
2023/05/09 09:07:49;;;;;;;0.80;0.63;;;17.90;45.70;18.00;101050.00;;;;4925112;28;93072;-71
2023/05/09 09:10:28;;;;;;;2.15;1.00;;;17.80;45.60;18.00;101058.00;;;;4924705;28;93089;-71
2023/05/09 09:12:56;;;;;;;2.47;1.17;;;17.80;45.40;17.90;101052.00;;;;4924075;28;114071;-72
2023/05/09 09:15:25;;;;;;;0.85;0.70;;;17.70;45.20;17.70;101034.00;;;;4924045;28;114994;-72
2023/05/09 09:17:55;;;;;;;1.50;1.30;;;17.60;45.00;17.70;101032.00;;;;4926838;28;92606;-73
2023/05/09 09:20:22;;;;;;;2.25;0.90;;;17.50;45.80;17.80;101039.00;;;;4926714;28;92891;-73
2023/05/09 09:22:51;;;;;;;0.75;0.75;;;17.60;46.80;18.00;101042.00;;;;4923041;28;96372;-72
2023/05/09 09:25:16;;;;;;;1.90;0.90;;;17.70;47.20;18.20;101034.00;;;;4924703;28;93966;-73
2023/05/09 09:27:42;;;;;;;2.53;1.13;;;17.90;45.20;18.40;101033.00;;;;4926605;28;93257;-79
2023/05/09 09:30:10;;;;;;;1.23;1.05;;;18.10;44.60;18.40;101031.00;;;;4926404;28;107950;-73
2023/05/09 09:32:37;;;;;;;2.20;0.95;;;18.20;44.30;18.20;101027.00;;;;4923944;28;94235;-73
2023/05/09 09:35:08;;;;;;;1.10;0.65;;;18.10;44.30;18.20;101024.00;;;;4924597;28;92864;-73
2023/05/09 09:37:35;;;;;;;1.42;1.10;;;18.00;44.90;18.20;101023.00;;;;4931591;28;92899;-74
2023/05/09 09:40:03;;;;;;;1.40;1.00;;;18.00;45.20;18.40;101012.00;;;;4927731;28;93303;-77
2023/05/09 09:42:43;;;;;;;0.90;0.80;;;18.10;45.00;18.70;101026.00;;;;4927982;28;92581;-78
2023/05/09 09:45:15;;;;;;;6.30;1.27;;;18.40;44.60;18.80;101012.00;;;;4915505;28;94209;-80
2023/05/09 09:47:46;;;;;;;1.52;1.42;;;18.80;43.70;19.00;101016.00;;;;4906695;28;105210;-83
2023/05/09 09:50:22;;;;;;;2.20;1.25;;;18.60;43.60;19.00;101007.00;;;;4925949;28;93835;-78
2023/05/09 09:52:52;;;;;;;2.15;1.42;;;18.70;43.20;19.10;101004.00;;;;4931305;28;95438;-78
2023/05/09 09:55:21;;;;;;;2.17;1.33;;;18.80;43.60;19.40;101013.00;;;;4913551;28;95005;-77
2023/05/09 09:57:47;;;;;;;0.85;0.70;;;19.00;43.00;19.50;101014.00;;;;4930986;28;92919;-80
2023/05/09 10:00:16;;;;;;;1.48;1.00;;;19.10;42.60;19.30;101015.00;;;;4928096;28;92878;-76
2023/05/09 10:02:51;;;;;;;4.03;1.35;;;19.10;42.10;19.40;101012.00;;;;4929147;28;104753;-78
2023/05/09 10:05:23;;;;;;;1.58;1.48;;;19.10;42.50;19.40;101005.00;;;;4924227;28;94964;-78
2023/05/09 10:07:58;;;;;;;1.20;1.10;;;19.10;41.90;19.40;101014.00;;;;4911059;28;92160;-78
2023/05/09 10:10:30;;;;;;;1.80;1.13;;;19.10;41.60;19.60;101002.00;;;;4925210;28;93195;-77
2023/05/09 10:12:58;;;;;;;1.48;1.30;;;19.20;41.50;19.80;100989.00;;;;4928021;28;93763;-78
2023/05/09 10:15:25;;;;;;;1.25;1.15;;;19.40;41.90;19.90;101003.00;;;;4927173;28;93872;-78
2023/05/09 10:17:56;;;;;;;0.80;0.80;;;19.50;41.40;20.10;101002.00;;;;4927854;28;93045;-79
2023/05/09 10:20:23;;;;;;;1.20;0.90;;;19.70;40.90;20.00;100994.00;;;;4927772;28;93134;-80
2023/05/09 10:23:01;;;;;;;4.35;1.60;;;19.70;40.40;20.00;100998.00;;;;4926255;28;93811;-81
2023/05/09 10:25:41;;;;;;;1.30;0.60;;;19.70;40.40;20.10;100986.00;;;;4929297;28;94825;-81
2023/05/09 10:28:11;;;;;;;1.58;1.10;;;19.70;40.60;20.10;100997.00;;;;4922317;28;92912;-79
2023/05/09 10:31:00;;;;;;;3.20;1.13;;;19.80;40.80;20.20;100987.00;;;;4906784;28;93104;-82
2023/05/09 10:33:35;;;;;;;2.38;1.65;;;19.80;41.10;20.40;100988.00;;;;4926701;28;94953;-78
2023/05/09 10:36:02;;;;;;;1.63;1.42;;;19.90;41.20;20.70;100980.00;;;;4911570;28;94135;-80
2023/05/09 10:38:29;;;;;;;2.05;0.93;;;20.10;41.40;20.80;100977.00;;;;4926277;28;98960;-80
2023/05/09 10:40:55;;;;;;;1.45;1.02;;;20.30;40.80;20.90;100972.00;;;;4930689;28;103196;-81
2023/05/09 10:43:23;;;;;;;1.05;0.95;;;20.40;41.40;21.20;100968.00;;;;4923444;28;123507;-80
2023/05/09 10:45:50;;;;;;;1.50;0.82;;;20.70;40.70;21.40;100982.00;;;;4929000;28;93715;-81
2023/05/09 10:48:17;;;;;;;1.00;0.90;;;20.90;40.40;21.60;100966.00;;;;4924401;28;93271;-78
2023/05/09 10:50:45;;;;;;;1.10;1.00;;;21.10;39.30;21.70;100963.00;;;;4907253;28;95735;-77
2023/05/09 10:53:13;;;;;;;1.10;0.60;;;21.20;39.40;21.70;100959.00;;;;4923117;28;95241;-76
2023/05/09 10:55:57;;;;;;;0.38;0.38;;;21.30;38.20;21.90;100958.00;;;;4921377;28;93387;-83